sensor_id;sensor_type;location;lat;lon;timestamp;pressure;altitude;pressure_sealevel;temperature;humidity
48115;BME280;33903;44.704;10.448;2024-03-23T00:53:21;100264.81;;;14.20;66.79
48115;BME280;33903;44.704;10.448;2024-03-23T00:56:26;100256.47;;;14.65;65.56
48115;BME280;33903;44.704;10.448;2024-03-23T00:59:31;100266.41;;;14.64;65.27
48115;BME280;33903;44.704;10.448;2024-03-23T01:02:35;100253.78;;;14.31;66.10
48115;BME280;33903;44.704;10.448;2024-03-23T01:05:40;100245.59;;;14.23;66.27
48115;BME280;33903;44.704;10.448;2024-03-23T01:08:45;100251.19;;;14.29;66.53
48115;BME280;33903;44.704;10.448;2024-03-23T01:11:50;100248.81;;;14.44;65.42
48115;BME280;33903;44.704;10.448;2024-03-23T01:14:54;100241.25;;;14.30;65.79
48115;BME280;33903;44.704;10.448;2024-03-23T01:17:59;100236.94;;;14.37;65.39
48115;BME280;33903;44.704;10.448;2024-03-23T01:21:04;100235.88;;;14.64;64.27
48115;BME280;33903;44.704;10.448;2024-03-23T01:24:08;100229.34;;;14.82;63.95
48115;BME280;33903;44.704;10.448;2024-03-23T01:27:15;100232.25;;;14.47;64.89
48115;BME280;33903;44.704;10.448;2024-03-23T01:30:19;100232.00;;;14.66;63.87
48115;BME280;33903;44.704;10.448;2024-03-23T01:33:24;100227.28;;;14.34;65.25
48115;BME280;33903;44.704;10.448;2024-03-23T01:36:28;100225.72;;;14.58;64.66
48115;BME280;33903;44.704;10.448;2024-03-23T01:39:33;100221.19;;;14.74;63.71
48115;BME280;33903;44.704;10.448;2024-03-23T01:42:37;100210.31;;;14.16;65.83
48115;BME280;33903;44.704;10.448;2024-03-23T01:45:42;100205.34;;;14.04;66.73
48115;BME280;33903;44.704;10.448;2024-03-23T01:48:46;100198.25;;;14.78;63.43
48115;BME280;33903;44.704;10.448;2024-03-23T01:51:51;100201.22;;;14.51;65.08
48115;BME280;33903;44.704;10.448;2024-03-23T01:54:55;100210.56;;;14.73;63.94
48115;BME280;33903;44.704;10.448;2024-03-23T01:58:01;100206.72;;;14.91;63.59
48115;BME280;33903;44.704;10.448;2024-03-23T02:01:06;100196.38;;;14.71;64.09
48115;BME280;33903;44.704;10.448;2024-03-23T02:04:12;100209.06;;;14.78;63.50
48115;BME280;33903;44.704;10.448;2024-03-23T02:07:17;100200.47;;;14.83;63.92
48115;BME280;33903;44.704;10.448;2024-03-23T02:10:21;100197.09;;;14.31;64.72
48115;BME280;33903;44.704;10.448;2024-03-23T02:13:26;100202.91;;;14.52;64.51
48115;BME280;33903;44.704;10.448;2024-03-23T02:16:31;100198.31;;;14.45;64.45
48115;BME280;33903;44.704;10.448;2024-03-23T02:19:35;100199.63;;;14.32;64.78
48115;BME280;33903;44.704;10.448;2024-03-23T02:22:40;100201.25;;;14.25;65.29
48115;BME280;33903;44.704;10.448;2024-03-23T02:25:44;100189.84;;;14.31;65.36
48115;BME280;33903;44.704;10.448;2024-03-23T02:28:49;100197.09;;;14.31;65.27
48115;BME280;33903;44.704;10.448;2024-03-23T02:31:54;100195.78;;;14.17;66.37
48115;BME280;33903;44.704;10.448;2024-03-23T02:34:58;100193.41;;;14.06;66.36
48115;BME280;33903;44.704;10.448;2024-03-23T02:38:03;100189.84;;;14.06;66.83
48115;BME280;33903;44.704;10.448;2024-03-23T02:41:07;100194.91;;;13.75;68.02
48115;BME280;33903;44.704;10.448;2024-03-23T02:44:11;100191.38;;;13.83;68.49
48115;BME280;33903;44.704;10.448;2024-03-23T02:47:16;100186.41;;;13.96;67.93
48115;BME280;33903;44.704;10.448;2024-03-23T02:50:20;100179.28;;;13.87;68.02
48115;BME280;33903;44.704;10.448;2024-03-23T02:53:24;100174.38;;;13.82;68.45
48115;BME280;33903;44.704;10.448;2024-03-23T02:56:28;100174.56;;;13.89;68.16
48115;BME280;33903;44.704;10.448;2024-03-23T02:59:33;100172.25;;;13.94;67.96
48115;BME280;33903;44.704;10.448;2024-03-23T03:02:37;100163.81;;;13.97;68.00
48115;BME280;33903;44.704;10.448;2024-03-23T03:05:41;100166.00;;;13.93;67.49
48115;BME280;33903;44.704;10.448;2024-03-23T03:08:46;100159.97;;;13.74;68.62
48115;BME280;33903;44.704;10.448;2024-03-23T03:11:51;100157.53;;;13.88;67.45
48115;BME280;33903;44.704;10.448;2024-03-23T03:14:55;100146.78;;;13.62;68.63
48115;BME280;33903;44.704;10.448;2024-03-23T03:17:59;100149.66;;;13.69;68.47
48115;BME280;33903;44.704;10.448;2024-03-23T03:21:04;100144.75;;;13.64;68.41
48115;BME280;33903;44.704;10.448;2024-03-23T03:24:21;100146.72;;;13.54;68.49
48115;BME280;33903;44.704;10.448;2024-03-23T03:27:26;100134.97;;;13.63;68.35
48115;BME280;33903;44.704;10.448;2024-03-23T03:30:30;100135.13;;;13.36;69.17
48115;BME280;33903;44.704;10.448;2024-03-23T03:33:35;100137.53;;;13.65;68.06
48115;BME280;33903;44.704;10.448;2024-03-23T03:36:39;100134.41;;;13.09;69.70
48115;BME280;33903;44.704;10.448;2024-03-23T03:39:44;100135.00;;;13.20;69.25
48115;BME280;33903;44.704;10.448;2024-03-23T03:42:48;100133.97;;;13.03;70.00
48115;BME280;33903;44.704;10.448;2024-03-23T03:45:53;100124.16;;;13.12;68.37
48115;BME280;33903;44.704;10.448;2024-03-23T03:48:58;100120.00;;;13.00;69.28
48115;BME280;33903;44.704;10.448;2024-03-23T03:52:02;100114.13;;;13.22;67.71
48115;BME280;33903;44.704;10.448;2024-03-23T03:55:13;100110.28;;;13.25;67.22
48115;BME280;33903;44.704;10.448;2024-03-23T03:58:18;100109.19;;;13.35;67.35
48115;BME280;33903;44.704;10.448;2024-03-23T04:01:23;100114.47;;;13.79;65.25
48115;BME280;33903;44.704;10.448;2024-03-23T04:04:27;100108.97;;;13.54;65.65
48115;BME280;33903;44.704;10.448;2024-03-23T04:07:31;100108.28;;;13.52;65.74
48115;BME280;33903;44.704;10.448;2024-03-23T04:10:36;100101.38;;;13.58;65.73
48115;BME280;33903;44.704;10.448;2024-03-23T04:13:40;100097.63;;;13.51;65.40
48115;BME280;33903;44.704;10.448;2024-03-23T04:16:45;100089.88;;;13.48;65.25
48115;BME280;33903;44.704;10.448;2024-03-23T04:19:50;100086.28;;;13.65;65.19
48115;BME280;33903;44.704;10.448;2024-03-23T04:22:56;100089.34;;;13.78;64.73
48115;BME280;33903;44.704;10.448;2024-03-23T04:26:04;100077.22;;;13.74;64.77
48115;BME280;33903;44.704;10.448;2024-03-23T04:29:09;100080.44;;;13.86;63.91
48115;BME280;33903;44.704;10.448;2024-03-23T04:32:17;100076.63;;;13.96;63.96
48115;BME280;33903;44.704;10.448;2024-03-23T04:35:21;100074.19;;;13.85;64.56
48115;BME280;33903;44.704;10.448;2024-03-23T04:38:29;100086.88;;;13.85;64.26
48115;BME280;33903;44.704;10.448;2024-03-23T04:41:35;100078.13;;;13.91;64.05
48115;BME280;33903;44.704;10.448;2024-03-23T04:44:39;100070.72;;;13.33;66.64
48115;BME280;33903;44.704;10.448;2024-03-23T04:47:44;100066.72;;;13.12;67.57
48115;BME280;33903;44.704;10.448;2024-03-23T04:50:49;100064.06;;;12.76;69.12
48115;BME280;33903;44.704;10.448;2024-03-23T04:53:53;100054.66;;;12.80;69.24
48115;BME280;33903;44.704;10.448;2024-03-23T04:56:58;100071.72;;;12.89;69.06
48115;BME280;33903;44.704;10.448;2024-03-23T05:00:03;100073.34;;;12.82;68.59
48115;BME280;33903;44.704;10.448;2024-03-23T05:03:16;100068.91;;;12.55;70.09
48115;BME280;33903;44.704;10.448;2024-03-23T05:06:21;100067.25;;;12.97;68.66
48115;BME280;33903;44.704;10.448;2024-03-23T05:09:25;100069.09;;;12.97;68.70
48115;BME280;33903;44.704;10.448;2024-03-23T05:12:34;100067.13;;;12.81;69.18
48115;BME280;33903;44.704;10.448;2024-03-23T05:15:39;100072.06;;;12.68;70.02
48115;BME280;33903;44.704;10.448;2024-03-23T05:18:43;100082.00;;;12.50;70.21
48115;BME280;33903;44.704;10.448;2024-03-23T05:21:48;100062.16;;;12.33;71.22
48115;BME280;33903;44.704;10.448;2024-03-23T05:24:53;100078.75;;;12.82;69.24
48115;BME280;33903;44.704;10.448;2024-03-23T05:27:57;100064.13;;;12.67;69.13
48115;BME280;33903;44.704;10.448;2024-03-23T05:31:01;100069.59;;;12.75;69.48
48115;BME280;33903;44.704;10.448;2024-03-23T05:34:06;100060.75;;;12.82;69.07
48115;BME280;33903;44.704;10.448;2024-03-23T05:37:11;100061.81;;;12.89;67.93
48115;BME280;33903;44.704;10.448;2024-03-23T05:40:15;100051.41;;;13.12;67.27
48115;BME280;33903;44.704;10.448;2024-03-23T05:43:21;100060.78;;;13.59;65.90
48115;BME280;33903;44.704;10.448;2024-03-23T05:46:25;100061.75;;;13.84;64.79
48115;BME280;33903;44.704;10.448;2024-03-23T05:49:29;100059.19;;;12.97;66.68
48115;BME280;33903;44.704;10.448;2024-03-23T05:52:34;100052.28;;;13.46;65.09
48115;BME280;33903;44.704;10.448;2024-03-23T05:55:38;100059.63;;;14.04;62.95
48115;BME280;33903;44.704;10.448;2024-03-23T05:58:43;100058.47;;;14.22;61.74
48115;BME280;33903;44.704;10.448;2024-03-23T06:01:47;100059.97;;;14.09;62.03
48115;BME280;33903;44.704;10.448;2024-03-23T06:04:52;100053.69;;;14.58;60.55
48115;BME280;33903;44.704;10.448;2024-03-23T06:07:56;100048.97;;;14.84;58.70
48115;BME280;33903;44.704;10.448;2024-03-23T06:11:01;100054.00;;;15.28;58.66
48115;BME280;33903;44.704;10.448;2024-03-23T06:14:05;100046.09;;;15.02;58.41
48115;BME280;33903;44.704;10.448;2024-03-23T06:17:10;100049.81;;;14.93;58.04
48115;BME280;33903;44.704;10.448;2024-03-23T06:20:14;100037.16;;;14.61;59.61
48115;BME280;33903;44.704;10.448;2024-03-23T06:23:19;100027.97;;;15.19;57.65
48115;BME280;33903;44.704;10.448;2024-03-23T06:26:24;100024.78;;;15.15;58.09
48115;BME280;33903;44.704;10.448;2024-03-23T06:29:28;100025.97;;;15.21;57.67
48115;BME280;33903;44.704;10.448;2024-03-23T06:32:32;100031.56;;;15.74;56.63
48115;BME280;33903;44.704;10.448;2024-03-23T06:35:37;100033.22;;;15.75;56.99
48115;BME280;33903;44.704;10.448;2024-03-23T06:38:42;100023.78;;;15.00;59.75
48115;BME280;33903;44.704;10.448;2024-03-23T06:41:52;100013.91;;;15.31;58.33
48115;BME280;33903;44.704;10.448;2024-03-23T06:44:57;100019.53;;;15.22;59.61
48115;BME280;33903;44.704;10.448;2024-03-23T06:48:01;100011.78;;;15.03;60.00
48115;BME280;33903;44.704;10.448;2024-03-23T06:51:07;100010.75;;;15.12;59.80
48115;BME280;33903;44.704;10.448;2024-03-23T06:54:13;100011.53;;;15.44;59.59
48115;BME280;33903;44.704;10.448;2024-03-23T06:57:18;100004.94;;;15.31;59.72
48115;BME280;33903;44.704;10.448;2024-03-23T07:00:23;100006.13;;;15.28;58.58
48115;BME280;33903;44.704;10.448;2024-03-23T07:03:29;100002.06;;;15.87;58.00
48115;BME280;33903;44.704;10.448;2024-03-23T07:06:34;99989.09;;;16.59;56.18
48115;BME280;33903;44.704;10.448;2024-03-23T07:09:38;99990.72;;;16.68;55.52
48115;BME280;33903;44.704;10.448;2024-03-23T07:12:43;99983.00;;;16.94;54.48
48115;BME280;33903;44.704;10.448;2024-03-23T07:15:52;99975.66;;;17.17;52.36
48115;BME280;33903;44.704;10.448;2024-03-23T07:18:57;99972.34;;;16.92;53.01
48115;BME280;33903;44.704;10.448;2024-03-23T07:22:03;99964.31;;;17.14;52.56
48115;BME280;33903;44.704;10.448;2024-03-23T07:25:16;99963.94;;;17.75;51.54
48115;BME280;33903;44.704;10.448;2024-03-23T07:28:21;99955.47;;;17.99;50.10
48115;BME280;33903;44.704;10.448;2024-03-23T07:31:26;99951.97;;;18.05;50.42
48115;BME280;33903;44.704;10.448;2024-03-23T07:34:31;99958.13;;;18.35;49.51
48115;BME280;33903;44.704;10.448;2024-03-23T07:37:35;99959.06;;;18.63;49.61
48115;BME280;33903;44.704;10.448;2024-03-23T07:40:40;99962.25;;;18.95;48.94
48115;BME280;33903;44.704;10.448;2024-03-23T07:43:47;99958.56;;;19.36;48.41
48115;BME280;33903;44.704;10.448;2024-03-23T07:46:52;99957.81;;;19.96;46.92
48115;BME280;33903;44.704;10.448;2024-03-23T07:49:56;99951.44;;;21.02;43.50
48115;BME280;33903;44.704;10.448;2024-03-23T07:53:00;99945.03;;;22.99;38.51
48115;BME280;33903;44.704;10.448;2024-03-23T07:56:07;99944.22;;;24.67;35.54
48115;BME280;33903;44.704;10.448;2024-03-23T07:59:12;99948.47;;;26.41;33.00
48115;BME280;33903;44.704;10.448;2024-03-23T08:02:16;99948.72;;;28.00;30.69
48115;BME280;33903;44.704;10.448;2024-03-23T08:05:21;99948.00;;;29.63;30.69
48115;BME280;33903;44.704;10.448;2024-03-23T08:08:26;99954.75;;;30.69;28.79
48115;BME280;33903;44.704;10.448;2024-03-23T08:11:32;99937.81;;;31.36;27.73
48115;BME280;33903;44.704;10.448;2024-03-23T08:14:40;99933.06;;;31.62;27.63
48115;BME280;33903;44.704;10.448;2024-03-23T08:17:45;99924.38;;;31.84;28.31
48115;BME280;33903;44.704;10.448;2024-03-23T08:21:00;99914.91;;;32.44;28.71
48115;BME280;33903;44.704;10.448;2024-03-23T08:24:06;99902.91;;;32.87;27.81
48115;BME280;33903;44.704;10.448;2024-03-23T08:27:10;99911.75;;;33.52;27.11
48115;BME280;33903;44.704;10.448;2024-03-23T08:30:14;99912.66;;;34.88;25.82
48115;BME280;33903;44.704;10.448;2024-03-23T08:33:20;99907.34;;;35.78;23.88
48115;BME280;33903;44.704;10.448;2024-03-23T08:36:28;99925.25;;;36.40;23.56
48115;BME280;33903;44.704;10.448;2024-03-23T08:39:33;99922.94;;;37.44;22.29
48115;BME280;33903;44.704;10.448;2024-03-23T08:42:39;99914.34;;;37.41;22.39
48115;BME280;33903;44.704;10.448;2024-03-23T08:45:43;99928.53;;;37.75;21.92
48115;BME280;33903;44.704;10.448;2024-03-23T08:48:48;99931.28;;;38.06;21.45
48115;BME280;33903;44.704;10.448;2024-03-23T08:51:53;99921.50;;;37.86;21.69
48115;BME280;33903;44.704;10.448;2024-03-23T08:54:59;99913.03;;;38.34;20.69
48115;BME280;33903;44.704;10.448;2024-03-23T08:58:04;99902.31;;;37.09;21.42
48115;BME280;33903;44.704;10.448;2024-03-23T09:01:11;99889.63;;;35.96;22.88
48115;BME280;33903;44.704;10.448;2024-03-23T09:04:17;99891.38;;;36.99;21.46
48115;BME280;33903;44.704;10.448;2024-03-23T09:07:21;99879.75;;;36.84;22.41
48115;BME280;33903;44.704;10.448;2024-03-23T09:10:26;99885.09;;;36.36;23.37
48115;BME280;33903;44.704;10.448;2024-03-23T09:13:30;99883.00;;;36.19;23.66
48115;BME280;33903;44.704;10.448;2024-03-23T09:16:35;99882.38;;;36.89;22.40
48115;BME280;33903;44.704;10.448;2024-03-23T09:19:39;99875.69;;;37.43;21.58
48115;BME280;33903;44.704;10.448;2024-03-23T09:22:44;99882.19;;;36.05;23.20
48115;BME280;33903;44.704;10.448;2024-03-23T09:25:48;99894.00;;;34.32;23.82
48115;BME280;33903;44.704;10.448;2024-03-23T09:28:52;99891.50;;;32.55;25.36
48115;BME280;33903;44.704;10.448;2024-03-23T09:31:57;99877.69;;;31.12;27.13
48115;BME280;33903;44.704;10.448;2024-03-23T09:35:02;99871.72;;;29.77;28.40
48115;BME280;33903;44.704;10.448;2024-03-23T09:38:07;99872.63;;;29.41;28.91
48115;BME280;33903;44.704;10.448;2024-03-23T09:41:14;99864.38;;;29.46;29.05
48115;BME280;33903;44.704;10.448;2024-03-23T09:44:19;99849.31;;;28.80;29.71
48115;BME280;33903;44.704;10.448;2024-03-23T09:47:24;99862.78;;;28.13;30.50
48115;BME280;33903;44.704;10.448;2024-03-23T09:50:29;99852.59;;;28.45;30.59
48115;BME280;33903;44.704;10.448;2024-03-23T09:53:35;99847.22;;;28.02;30.85
48115;BME280;33903;44.704;10.448;2024-03-23T09:56:40;99844.81;;;27.62;31.88
48115;BME280;33903;44.704;10.448;2024-03-23T09:59:45;99841.19;;;27.18;31.96
48115;BME280;33903;44.704;10.448;2024-03-23T10:02:50;99841.88;;;27.08;32.82
48115;BME280;33903;44.704;10.448;2024-03-23T10:06:01;99834.22;;;26.94;32.55
48115;BME280;33903;44.704;10.448;2024-03-23T10:09:17;99824.53;;;26.91;33.23
48115;BME280;33903;44.704;10.448;2024-03-23T10:12:25;99819.66;;;26.60;33.60
48115;BME280;33903;44.704;10.448;2024-03-23T10:15:30;99801.38;;;26.37;33.03
48115;BME280;33903;44.704;10.448;2024-03-23T10:18:39;99811.06;;;26.23;35.25
48115;BME280;33903;44.704;10.448;2024-03-23T10:21:52;99809.91;;;26.19;36.78
48115;BME280;33903;44.704;10.448;2024-03-23T10:25:07;99802.59;;;25.97;39.62
48115;BME280;33903;44.704;10.448;2024-03-23T10:28:12;99786.41;;;26.00;40.49
48115;BME280;33903;44.704;10.448;2024-03-23T10:31:17;99778.78;;;25.74;38.94
48115;BME280;33903;44.704;10.448;2024-03-23T10:34:25;99776.81;;;25.30;39.68
48115;BME280;33903;44.704;10.448;2024-03-23T10:37:33;99763.81;;;25.13;40.30
48115;BME280;33903;44.704;10.448;2024-03-23T10:40:38;99751.56;;;25.04;40.21
48115;BME280;33903;44.704;10.448;2024-03-23T10:43:50;99747.00;;;25.10;39.81
48115;BME280;33903;44.704;10.448;2024-03-23T10:46:55;99751.50;;;24.53;41.22
48115;BME280;33903;44.704;10.448;2024-03-23T10:50:06;99753.50;;;24.34;42.60
48115;BME280;33903;44.704;10.448;2024-03-23T10:53:12;99756.16;;;24.29;42.14
48115;BME280;33903;44.704;10.448;2024-03-23T10:56:19;99743.50;;;24.28;42.25
48115;BME280;33903;44.704;10.448;2024-03-23T10:59:25;99733.72;;;24.21;43.31
48115;BME280;33903;44.704;10.448;2024-03-23T11:02:29;99737.78;;;24.18;43.40
48115;BME280;33903;44.704;10.448;2024-03-23T11:05:34;99735.09;;;24.00;43.28
48115;BME280;33903;44.704;10.448;2024-03-23T11:08:40;99731.03;;;24.03;43.61
48115;BME280;33903;44.704;10.448;2024-03-23T11:11:49;99739.53;;;24.13;41.71
48115;BME280;33903;44.704;10.448;2024-03-23T11:14:57;99728.09;;;24.27;40.81
48115;BME280;33903;44.704;10.448;2024-03-23T11:18:04;99710.94;;;24.09;41.93
48115;BME280;33903;44.704;10.448;2024-03-23T11:21:10;99694.34;;;24.04;42.26
48115;BME280;33903;44.704;10.448;2024-03-23T11:24:15;99669.53;;;23.99;43.06
48115;BME280;33903;44.704;10.448;2024-03-23T11:27:21;99656.28;;;23.95;42.49
48115;BME280;33903;44.704;10.448;2024-03-23T11:30:27;99648.56;;;24.39;41.44
48115;BME280;33903;44.704;10.448;2024-03-23T11:33:35;99654.75;;;24.46;38.97
48115;BME280;33903;44.704;10.448;2024-03-23T11:36:40;99653.78;;;24.06;37.91
48115;BME280;33903;44.704;10.448;2024-03-23T11:39:44;99648.22;;;24.12;37.48
48115;BME280;33903;44.704;10.448;2024-03-23T11:42:55;99636.81;;;24.55;36.52
48115;BME280;33903;44.704;10.448;2024-03-23T11:46:00;99629.25;;;24.74;37.26
48115;BME280;33903;44.704;10.448;2024-03-23T11:49:20;99611.16;;;24.61;36.45
48115;BME280;33903;44.704;10.448;2024-03-23T11:52:26;99616.56;;;24.44;37.52
48115;BME280;33903;44.704;10.448;2024-03-23T11:55:41;99609.63;;;24.42;38.19
48115;BME280;33903;44.704;10.448;2024-03-23T11:58:46;99606.34;;;24.28;38.48
48115;BME280;33903;44.704;10.448;2024-03-23T12:01:53;99611.38;;;24.71;37.89
48115;BME280;33903;44.704;10.448;2024-03-23T12:04:58;99592.59;;;24.51;38.22
48115;BME280;33903;44.704;10.448;2024-03-23T12:08:24;99589.78;;;25.19;37.31
48115;BME280;33903;44.704;10.448;2024-03-23T12:11:29;99586.44;;;24.21;37.99
48115;BME280;33903;44.704;10.448;2024-03-23T12:14:33;99583.94;;;23.73;38.21
48115;BME280;33903;44.704;10.448;2024-03-23T12:17:38;99577.63;;;23.96;38.21
48115;BME280;33903;44.704;10.448;2024-03-23T12:20:43;99575.31;;;23.35;40.58
48115;BME280;33903;44.704;10.448;2024-03-23T12:23:47;99563.47;;;23.11;41.49
48115;BME280;33903;44.704;10.448;2024-03-23T12:26:53;99556.22;;;23.17;40.36
48115;BME280;33903;44.704;10.448;2024-03-23T12:29:57;99554.63;;;23.51;38.43
48115;BME280;33903;44.704;10.448;2024-03-23T12:33:02;99540.19;;;24.02;38.29
48115;BME280;33903;44.704;10.448;2024-03-23T12:36:07;99537.47;;;23.78;39.50
48115;BME280;33903;44.704;10.448;2024-03-23T12:39:12;99531.56;;;23.05;40.55
48115;BME280;33903;44.704;10.448;2024-03-23T12:42:16;99524.81;;;23.31;40.10
48115;BME280;33903;44.704;10.448;2024-03-23T12:45:22;99514.94;;;23.88;39.05
48115;BME280;33903;44.704;10.448;2024-03-23T12:48:26;99518.09;;;24.31;38.66
48115;BME280;33903;44.704;10.448;2024-03-23T12:51:31;99506.72;;;23.76;39.17
48115;BME280;33903;44.704;10.448;2024-03-23T12:54:37;99493.66;;;23.55;39.15
48115;BME280;33903;44.704;10.448;2024-03-23T12:57:41;99480.28;;;23.01;39.77
48115;BME280;33903;44.704;10.448;2024-03-23T13:00:46;99476.69;;;23.23;40.07
48115;BME280;33903;44.704;10.448;2024-03-23T13:03:50;99469.69;;;23.27;40.84
48115;BME280;33903;44.704;10.448;2024-03-23T13:06:55;99455.41;;;23.49;39.95
48115;BME280;33903;44.704;10.448;2024-03-23T13:09:59;99448.16;;;23.54;40.07
48115;BME280;33903;44.704;10.448;2024-03-23T13:13:04;99451.13;;;23.53;40.55
48115;BME280;33903;44.704;10.448;2024-03-23T13:16:08;99444.22;;;23.39;41.10
48115;BME280;33903;44.704;10.448;2024-03-23T13:19:13;99448.00;;;23.26;41.15
48115;BME280;33903;44.704;10.448;2024-03-23T13:22:18;99465.53;;;23.48;40.77
48115;BME280;33903;44.704;10.448;2024-03-23T13:25:22;99454.19;;;23.79;38.17
48115;BME280;33903;44.704;10.448;2024-03-23T13:28:27;99438.06;;;23.83;37.19
48115;BME280;33903;44.704;10.448;2024-03-23T13:31:31;99434.00;;;24.25;37.08
48115;BME280;33903;44.704;10.448;2024-03-23T13:34:36;99426.53;;;24.49;35.81
48115;BME280;33903;44.704;10.448;2024-03-23T13:37:41;99418.28;;;24.49;36.70
48115;BME280;33903;44.704;10.448;2024-03-23T13:40:55;99404.22;;;24.45;36.29
48115;BME280;33903;44.704;10.448;2024-03-23T13:44:01;99402.81;;;24.15;36.77
48115;BME280;33903;44.704;10.448;2024-03-23T13:47:06;99416.69;;;24.36;37.57
48115;BME280;33903;44.704;10.448;2024-03-23T13:50:10;99398.63;;;24.40;36.41
48115;BME280;33903;44.704;10.448;2024-03-23T13:53:15;99402.31;;;24.18;37.27
48115;BME280;33903;44.704;10.448;2024-03-23T13:56:19;99412.75;;;23.64;38.66
48115;BME280;33903;44.704;10.448;2024-03-23T13:59:24;99410.28;;;23.91;38.18
48115;BME280;33903;44.704;10.448;2024-03-23T14:02:28;99416.53;;;24.03;38.52
48115;BME280;33903;44.704;10.448;2024-03-23T14:05:33;99413.22;;;24.01;39.28
48115;BME280;33903;44.704;10.448;2024-03-23T14:13:11;99411.34;;;23.27;40.29
48115;BME280;33903;44.704;10.448;2024-03-23T14:16:15;99414.56;;;23.47;40.13
48115;BME280;33903;44.704;10.448;2024-03-23T14:19:20;99410.53;;;23.15;40.99
48115;BME280;33903;44.704;10.448;2024-03-23T14:22:25;99398.25;;;22.94;40.77
48115;BME280;33903;44.704;10.448;2024-03-23T14:25:34;99406.38;;;23.01;40.98
48115;BME280;33903;44.704;10.448;2024-03-23T14:28:45;99417.91;;;23.14;40.77
48115;BME280;33903;44.704;10.448;2024-03-23T14:31:55;99410.63;;;23.31;40.44
48115;BME280;33903;44.704;10.448;2024-03-23T14:35:09;99408.22;;;22.89;41.56
48115;BME280;33903;44.704;10.448;2024-03-23T14:38:20;99411.34;;;23.04;40.84
48115;BME280;33903;44.704;10.448;2024-03-23T14:41:26;99405.25;;;23.13;40.64
48115;BME280;33903;44.704;10.448;2024-03-23T14:44:30;99389.91;;;23.36;40.11
48115;BME280;33903;44.704;10.448;2024-03-23T14:47:35;99403.72;;;23.29;39.68
48115;BME280;33903;44.704;10.448;2024-03-23T14:50:39;99389.31;;;23.22;40.26
48115;BME280;33903;44.704;10.448;2024-03-23T14:53:45;99379.53;;;23.49;39.09
48115;BME280;33903;44.704;10.448;2024-03-23T14:56:52;99393.13;;;23.44;40.02
48115;BME280;33903;44.704;10.448;2024-03-23T14:59:58;99382.66;;;23.53;39.35
48115;BME280;33903;44.704;10.448;2024-03-23T15:03:04;99382.78;;;22.88;39.66
48115;BME280;33903;44.704;10.448;2024-03-23T15:06:08;99380.38;;;23.26;39.33
48115;BME280;33903;44.704;10.448;2024-03-23T15:09:17;99391.00;;;23.23;39.24
48115;BME280;33903;44.704;10.448;2024-03-23T15:12:26;99397.31;;;23.00;39.66
48115;BME280;33903;44.704;10.448;2024-03-23T15:15:31;99401.19;;;23.62;38.64
48115;BME280;33903;44.704;10.448;2024-03-23T15:18:52;99400.09;;;23.75;39.09
48115;BME280;33903;44.704;10.448;2024-03-23T15:21:59;99410.81;;;23.76;38.95
48115;BME280;33903;44.704;10.448;2024-03-23T15:25:04;99411.19;;;23.68;39.17
48115;BME280;33903;44.704;10.448;2024-03-23T15:28:09;99405.97;;;23.55;39.79
48115;BME280;33903;44.704;10.448;2024-03-23T15:31:17;99416.31;;;23.53;39.76
48115;BME280;33903;44.704;10.448;2024-03-23T15:34:22;99408.97;;;23.30;40.52
48115;BME280;33903;44.704;10.448;2024-03-23T15:37:27;99403.34;;;23.49;39.90
48115;BME280;33903;44.704;10.448;2024-03-23T15:40:34;99408.97;;;23.19;39.97
48115;BME280;33903;44.704;10.448;2024-03-23T15:43:39;99399.91;;;23.42;39.47
48115;BME280;33903;44.704;10.448;2024-03-23T15:46:45;99372.88;;;23.33;39.62
48115;BME280;33903;44.704;10.448;2024-03-23T15:49:49;99365.41;;;22.94;40.68
48115;BME280;33903;44.704;10.448;2024-03-23T15:52:57;99369.38;;;22.57;41.86
48115;BME280;33903;44.704;10.448;2024-03-23T15:56:03;99379.72;;;22.32;41.43
48115;BME280;33903;44.704;10.448;2024-03-23T15:59:08;99378.06;;;22.42;41.41
48115;BME280;33903;44.704;10.448;2024-03-23T16:02:12;99374.47;;;22.00;42.79
48115;BME280;33903;44.704;10.448;2024-03-23T16:05:17;99367.03;;;22.49;41.79
48115;BME280;33903;44.704;10.448;2024-03-23T16:08:23;99378.25;;;22.94;40.88
48115;BME280;33903;44.704;10.448;2024-03-23T16:11:28;99367.53;;;22.16;42.60
48115;BME280;33903;44.704;10.448;2024-03-23T16:14:32;99375.38;;;22.89;41.22
48115;BME280;33903;44.704;10.448;2024-03-23T16:17:36;99359.16;;;22.41;42.35
48115;BME280;33903;44.704;10.448;2024-03-23T16:20:42;99366.72;;;22.69;42.25
48115;BME280;33903;44.704;10.448;2024-03-23T16:23:46;99363.88;;;22.63;41.79
48115;BME280;33903;44.704;10.448;2024-03-23T16:26:51;99382.09;;;21.98;43.59
48115;BME280;33903;44.704;10.448;2024-03-23T16:29:55;99370.38;;;22.62;42.40
48115;BME280;33903;44.704;10.448;2024-03-23T16:33:00;99381.34;;;22.62;42.17
48115;BME280;33903;44.704;10.448;2024-03-23T16:36:08;99393.47;;;22.66;42.17
48115;BME280;33903;44.704;10.448;2024-03-23T16:39:13;99406.16;;;22.61;42.50
48115;BME280;33903;44.704;10.448;2024-03-23T16:42:19;99399.56;;;22.69;42.21
48115;BME280;33903;44.704;10.448;2024-03-23T16:45:24;99419.84;;;22.61;42.47
48115;BME280;33903;44.704;10.448;2024-03-23T16:48:29;99413.28;;;22.50;43.46
48115;BME280;33903;44.704;10.448;2024-03-23T16:51:34;99399.34;;;22.40;43.69
48115;BME280;33903;44.704;10.448;2024-03-23T16:54:38;99396.84;;;22.39;44.31
48115;BME280;33903;44.704;10.448;2024-03-23T16:57:43;99388.69;;;22.21;44.91
48115;BME280;33903;44.704;10.448;2024-03-23T17:00:48;99386.84;;;22.44;44.14